Time;durP1;ratioP1;P1;durP2;ratioP2;P2;SDS_P1;SDS_P2;PMS_P1;PMS_P2;Temp;Humidity;BMP_temperature;BMP_pressure;BME280_temperature;BME280_humidity;BME280_pressure;Samples;Min_cycle;Max_cycle;Signal;HPM_P1;HPM_P2
2023/09/09 00:02:07;;;;;;;3.45;2.25;;;;;;;;;;20933934;28;20223;-73
2023/09/09 00:12:09;;;;;;;3.40;2.30;;;;;;;;;;20936658;22;20229;-72
2023/09/09 00:22:10;;;;;;;2.95;2.22;;;;;;;;;;20841484;28;20227;-72
2023/09/09 00:32:12;;;;;;;4.35;2.70;;;;;;;;;;20875578;28;20247;-72
2023/09/09 00:42:14;;;;;;;2.95;2.28;;;;;;;;;;20830776;28;20225;-72
2023/09/09 00:52:16;;;;;;;2.85;2.08;;;;;;;;;;20827507;28;20629;-71
2023/09/09 01:02:18;;;;;;;3.03;2.45;;;;;;;;;;20811046;28;20290;-72
2023/09/09 01:12:22;;;;;;;3.13;2.17;;;;;;;;;;20795209;28;20285;-72
2023/09/09 01:22:24;;;;;;;2.97;2.25;;;;;;;;;;20794507;28;20223;-71
2023/09/09 01:32:26;;;;;;;4.18;2.55;;;;;;;;;;20793576;28;20712;-72
2023/09/09 01:42:28;;;;;;;3.63;2.50;;;;;;;;;;20776111;28;20785;-72
2023/09/09 01:52:30;;;;;;;3.85;2.70;;;;;;;;;;20809358;28;20282;-72
2023/09/09 02:02:32;;;;;;;3.67;2.50;;;;;;;;;;20790367;28;20314;-72
2023/09/09 02:12:34;;;;;;;3.42;2.50;;;;;;;;;;20774453;28;20293;-72
2023/09/09 02:22:36;;;;;;;3.13;2.22;;;;;;;;;;20819918;28;20280;-71
2023/09/09 02:32:38;;;;;;;4.65;2.38;;;21.60;99.90;;;;;;20837454;28;20581;-72
2023/09/09 02:42:40;;;;;;;3.10;2.17;;;;;;;;;;20778168;28;20222;-72
2023/09/09 02:52:42;;;;;;;2.97;2.35;;;;;;;;;;20816933;28;20247;-72
2023/09/09 03:02:44;;;;;;;3.00;2.42;;;;;;;;;;20785694;28;20618;-72
2023/09/09 03:12:47;;;;;;;3.95;2.17;;;;;;;;;;20769917;28;20768;-72
2023/09/09 03:22:49;;;;;;;6.18;2.10;;;;;;;;;;20818719;28;20225;-72
2023/09/09 03:32:51;;;;;;;3.60;2.30;;;;;;;;;;20814645;28;20276;-72
2023/09/09 03:42:54;;;;;;;3.47;2.05;;;;;;;;;;20788273;28;20444;-72
2023/09/09 03:52:55;;;;;;;2.97;2.15;;;;;;;;;;20849155;28;20220;-72
2023/09/09 04:02:57;;;;;;;3.60;2.70;;;;;;;;;;20801408;28;20295;-71
2023/09/09 04:12:59;;;;;;;2.83;2.00;;;;;;;;;;20784455;28;20287;-71
2023/09/09 04:23:01;;;;;;;2.83;2.10;;;;;;;;;;20789036;28;20295;-71
2023/09/09 04:33:04;;;;;;;4.37;2.20;;;20.50;99.90;;;;;;20798679;28;20262;-71
2023/09/09 04:43:07;;;;;;;2.70;2.30;;;20.30;99.90;;;;;;20797226;28;20598;-71
2023/09/09 04:53:10;;;;;;;2.73;2.17;;;;;;;;;;20842923;28;20293;-71
2023/09/09 05:03:13;;;;;;;9.03;2.80;;;;;;;;;;20798542;28;20558;-71
2023/09/09 05:13:15;;;;;;;2.57;2.00;;;;;;;;;;20820022;28;20709;-71
2023/09/09 05:23:17;;;;;;;3.33;2.30;;;;;;;;;;20805779;28;20221;-71
2023/09/09 05:33:19;;;;;;;6.93;2.73;;;;;;;;;;20835146;28;20350;-71
2023/09/09 05:43:21;;;;;;;5.97;2.53;;;;;;;;;;20776359;28;20579;-70
2023/09/09 05:53:23;;;;;;;3.53;2.17;;;;;;;;;;20820471;28;20286;-70
2023/09/09 06:03:26;;;;;;;3.40;2.60;;;;;;;;;;20879365;28;20972;-69
2023/09/09 06:13:28;;;;;;;3.50;2.80;;;;;;;;;;20906478;22;20229;-71
2023/09/09 06:23:30;;;;;;;4.75;2.63;;;;;;;;;;20902323;28;20288;-71
2023/09/09 06:33:32;;;;;;;5.00;2.53;;;;;;;;;;20814107;28;20236;-71
2023/09/09 06:43:34;;;;;;;3.13;2.50;;;;;;;;;;20785500;28;20782;-75
2023/09/09 06:53:36;;;;;;;4.13;2.90;;;;;;;;;;20872272;28;20264;-78
2023/09/09 07:03:37;;;;;;;3.08;2.47;;;;;;;;;;20804071;28;20275;-79
2023/09/09 07:13:39;;;;;;;2.80;2.15;;;;;;;;;;20815755;28;20225;-78
2023/09/09 07:23:41;;;;;;;3.20;2.70;;;;;;;;;;20812431;28;20294;-78
2023/09/09 07:33:42;;;;;;;3.63;2.88;;;;;;;;;;20828717;28;20263;-78
2023/09/09 07:43:44;;;;;;;3.95;2.88;;;;;;;;;;20814782;28;20245;-78
2023/09/09 07:53:46;;;;;;;4.80;3.60;;;;;;;;;;20839606;28;20252;-76
2023/09/09 08:03:48;;;;;;;3.97;3.20;;;;;;;;;;20907689;28;21005;-77
2023/09/09 08:13:49;;;;;;;5.13;3.30;;;;;;;;;;20918635;28;20695;-79
2023/09/09 08:23:52;;;;;;;4.82;3.25;;;;;;;;;;20901267;28;20214;-77
2023/09/09 08:33:54;;;;;;;5.18;3.15;;;;;;;;;;20866135;28;20221;-78
2023/09/09 08:44:34;;;;;;;4.22;3.30;;;23.60;99.90;;;;;;20883706;28;20218;-77
2023/09/09 08:54:36;;;;;;;4.03;3.25;;;;;;;;;;20835213;28;20285;-77
2023/09/09 09:04:38;;;;;;;5.18;3.22;;;24.00;99.90;;;;;;20914252;28;20219;-78
2023/09/09 09:14:49;;;;;;;4.03;3.10;;;;;;;;;;20877937;28;20684;-77
2023/09/09 09:24:50;;;;;;;3.47;2.63;;;;;;;;;;20895475;28;20224;-77
2023/09/09 09:34:54;;;;;;;5.50;2.90;;;;;;;;;;20894646;28;20216;-78
2023/09/09 09:45:08;;;;;;;3.95;2.75;;;;;;;;;;20906666;28;20235;-78
2023/09/09 09:55:16;;;;;;;3.60;2.85;;;25.10;99.90;;;;;;20923626;28;20216;-79
2023/09/09 10:05:20;;;;;;;3.53;2.78;;;;;;;;;;20906679;28;20584;-78
2023/09/09 10:15:22;;;;;;;3.15;2.85;;;;;;;;;;20889441;28;20232;-79
2023/09/09 10:25:24;;;;;;;7.63;2.83;;;;;;;;;;20887530;28;20219;-78
2023/09/09 10:35:28;;;;;;;2.90;2.20;;;25.90;99.90;;;;;;20906399;28;20217;-78
2023/09/09 10:45:31;;;;;;;3.85;2.13;;;;;;;;;;20904317;28;20217;-78
2023/09/09 10:55:32;;;;;;;2.90;2.38;;;;;;;;;;20840994;28;20252;-76
2023/09/09 11:06:03;;;;;;;4.72;2.30;;;26.60;99.90;;;;;;20882201;28;20243;-79
2023/09/09 11:16:07;;;;;;;2.42;2.03;;;;;;;;;;20814953;28;20717;-77
2023/09/09 11:26:11;;;;;;;3.58;2.10;;;27.20;99.90;;;;;;20853793;28;20240;-76
2023/09/09 11:36:17;;;;;;;2.85;1.80;;;27.50;99.90;;;;;;20810097;28;20282;-77
2023/09/09 11:46:19;;;;;;;2.25;1.80;;;;;;;;;;20863654;28;20628;-79
2023/09/09 11:56:21;;;;;;;2.30;1.58;;;;;;;;;;20903829;28;20219;-76
2023/09/09 12:06:23;;;;;;;3.85;1.58;;;;;;;;;;20916239;28;20259;-79
2023/09/09 12:16:25;;;;;;;2.15;1.58;;;;;;;;;;21038587;23;20234;-72
2023/09/09 12:26:28;;;;;;;2.92;1.67;;;;;;;;;;20987636;28;20268;-72
2023/09/09 12:36:33;;;;;;;2.78;1.75;;;;;;;;;;20995277;28;20207;-72
2023/09/09 12:46:35;;;;;;;3.58;1.42;;;;;;;;;;20961283;28;20298;-72
2023/09/09 12:56:37;;;;;;;1.75;1.45;;;;;;;;;;21050388;28;20581;-72
2023/09/09 13:06:39;;;;;;;335.40;210.57;;;;;;;;;;20993076;28;20253;-72
2023/09/09 19:25:29;;;;;;;4.32;2.08;;;;;;;;;;21048778;27;20955;-73
2023/09/09 19:35:31;;;;;;;2.03;1.67;;;;;;;;;;20954935;28;20225;-73
2023/09/09 19:45:33;;;;;;;2.83;1.80;;;;;;;;;;20920957;28;20220;-73
2023/09/09 19:55:35;;;;;;;3.08;1.90;;;;;;;;;;20884813;28;20228;-73
2023/09/09 20:05:37;;;;;;;2.70;1.67;;;;;;;;;;20887011;28;20223;-73
2023/09/09 20:15:39;;;;;;;9.30;2.15;;;;;;;;;;20902325;28;20607;-73
2023/09/09 20:25:41;;;;;;;6.57;2.25;;;;;;;;;;20831709;28;20776;-73
2023/09/09 20:35:47;;;;;;;2.90;1.88;;;;;;;;;;20812804;28;20658;-72
2023/09/09 20:45:49;;;;;;;2.60;1.80;;;;;;;;;;20817347;28;20736;-73
2023/09/09 20:55:50;;;;;;;3.78;2.28;;;;;;;;;;20807344;28;20590;-73
2023/09/09 21:05:53;;;;;;;3.40;2.10;;;;;;;;;;20810390;28;20266;-73
2023/09/09 21:15:55;;;;;;;2.53;2.03;;;;;;;;;;20907078;28;20257;-73
2023/09/09 21:25:57;;;;;;;6.93;2.30;;;;;;;;;;20798461;28;20575;-73
2023/09/09 21:35:59;;;;;;;4.43;2.58;;;;;;;;;;20847754;28;20217;-73
2023/09/09 21:46:01;;;;;;;5.28;2.53;;;;;;;;;;20784211;28;20201;-73
2023/09/09 21:56:03;;;;;;;5.30;2.47;;;;;;;;;;20786645;28;20224;-73
2023/09/09 22:06:05;;;;;;;3.05;2.33;;;;;;;;;;20803413;28;20670;-73
2023/09/09 22:16:07;;;;;;;4.35;2.63;;;25.40;99.90;;;;;;20840649;28;20223;-73
2023/09/09 22:26:29;;;;;;;4.93;2.50;;;;;;;;;;20795212;28;20320;-73
2023/09/09 22:36:31;;;;;;;5.28;2.58;;;;;;;;;;20799399;28;20227;-73
2023/09/09 22:46:33;;;;;;;5.60;2.50;;;;;;;;;;20816829;28;20217;-73
2023/09/09 22:56:35;;;;;;;4.75;2.20;;;;;;;;;;20773942;28;20234;-73
2023/09/09 23:06:37;;;;;;;3.38;2.30;;;;;;;;;;20775734;28;20636;-73
2023/09/09 23:16:39;;;;;;;3.78;2.80;;;;;;;;;;20796711;28;20230;-73
2023/09/09 23:26:40;;;;;;;4.93;2.55;;;;;;;;;;20809770;28;20251;-73
2023/09/09 23:36:42;;;;;;;5.13;2.70;;;;;;;;;;20813611;28;20382;-73
2023/09/09 23:46:44;;;;;;;4.35;2.75;;;;;;;;;;20783369;28;20233;-73
2023/09/09 23:56:46;;;;;;;4.82;2.50;;;;;;;;;;20807633;28;20240;-73
